createdAt,value
2019-01-30T00:01:55.656Z,6.23
2019-01-30T00:04:25.731Z,6.33
2019-01-30T00:06:56.780Z,6.50
2019-01-30T00:09:26.950Z,6.73
2019-01-30T00:11:56.954Z,6.43
2019-01-30T00:14:26.930Z,5.73
2019-01-30T00:16:56.965Z,5.77
2019-01-30T00:19:26.963Z,6.00
2019-01-30T00:21:57.078Z,6.13
2019-01-30T00:24:28.286Z,5.50
2019-01-30T00:26:58.342Z,5.30
2019-01-30T00:29:28.231Z,5.87
2019-01-30T00:31:59.884Z,5.70
2019-01-30T00:34:29.724Z,5.77
2019-01-30T00:36:59.660Z,5.67
2019-01-30T00:39:29.519Z,5.50
2019-01-30T00:41:59.402Z,5.60
2019-01-30T00:44:30.964Z,5.63
2019-01-30T00:47:00.960Z,5.90
2019-01-30T00:49:30.949Z,5.37
2019-01-30T00:52:01.072Z,5.70
2019-01-30T00:54:32.096Z,5.13
2019-01-30T00:57:02.174Z,5.23
2019-01-30T00:59:32.150Z,5.53
2019-01-30T01:02:02.113Z,5.50
2019-01-30T01:04:33.903Z,5.53
2019-01-30T01:07:03.971Z,5.37
2019-01-30T01:09:33.998Z,4.87
2019-01-30T01:12:04.007Z,5.33
2019-01-30T01:14:34.041Z,5.20
2019-01-30T01:17:03.952Z,5.50
2019-01-30T01:19:34.002Z,4.83
2019-01-30T01:22:04.255Z,4.77
2019-01-30T01:24:34.209Z,4.83
2019-01-30T01:27:04.132Z,4.60
2019-01-30T01:29:35.112Z,5.00
2019-01-30T01:32:05.230Z,4.50
2019-01-30T01:34:35.152Z,4.57
2019-01-30T01:37:05.468Z,4.90
2019-01-30T01:39:35.485Z,4.77
2019-01-30T01:42:05.533Z,4.80
2019-01-30T01:47:24.467Z,4.70
2019-01-30T01:49:54.332Z,4.53
2019-01-30T01:52:24.272Z,4.87
2019-01-30T01:54:54.246Z,4.73
2019-01-30T01:57:24.121Z,5.03
2019-01-30T01:59:54.168Z,5.10
2019-01-30T02:02:24.053Z,4.50
2019-01-30T02:04:54.042Z,4.97
2019-01-30T02:07:24.091Z,4.60
2019-01-30T02:09:54.097Z,5.00
2019-01-30T02:12:23.973Z,4.93
2019-01-30T02:14:53.939Z,4.50
2019-01-30T02:17:23.984Z,5.03
2019-01-30T02:19:54.018Z,4.90
2019-01-30T02:22:24.022Z,4.90
2019-01-30T02:24:54.100Z,4.60
2019-01-30T02:27:23.936Z,4.80
2019-01-30T02:29:53.974Z,5.07
2019-01-30T02:32:23.969Z,4.33
2019-01-30T02:34:53.972Z,5.13
2019-01-30T02:37:23.818Z,4.87
2019-01-30T02:39:57.060Z,4.80
2019-01-30T02:42:27.088Z,4.97
2019-01-30T02:44:57.129Z,4.73
2019-01-30T02:47:27.134Z,4.53
2019-01-30T02:49:56.997Z,4.83
2019-01-30T02:52:27.008Z,4.70
2019-01-30T02:54:56.955Z,4.37
2019-01-30T02:57:26.908Z,4.50
2019-01-30T02:59:56.834Z,4.57
2019-01-30T03:02:26.887Z,4.57
2019-01-30T03:04:56.795Z,4.40
2019-01-30T03:07:26.830Z,4.67
2019-01-30T03:09:56.785Z,4.67
2019-01-30T03:12:26.752Z,4.60
2019-01-30T03:14:56.712Z,4.50
2019-01-30T03:17:26.677Z,4.10
2019-01-30T03:19:56.591Z,4.53
2019-01-30T03:22:26.468Z,4.70
2019-01-30T03:24:56.442Z,4.60
2019-01-30T03:27:26.346Z,4.50
2019-01-30T03:29:56.387Z,4.80
2019-01-30T03:32:26.381Z,4.40
2019-01-30T03:34:56.415Z,4.70
2019-01-30T03:37:26.229Z,4.50
2019-01-30T03:39:56.081Z,4.87
2019-01-30T03:42:26.059Z,4.50
2019-01-30T03:44:56.038Z,4.33
2019-01-30T03:47:26.174Z,4.40
2019-01-30T03:49:56.133Z,4.40
2019-01-30T03:52:26.069Z,4.43
2019-01-30T03:54:56.200Z,4.63
2019-01-30T03:57:28.848Z,4.87
2019-01-30T03:59:57.850Z,4.30
2019-01-30T04:02:27.844Z,5.00
2019-01-30T04:04:57.806Z,5.13
2019-01-30T04:07:27.871Z,4.70
2019-01-30T04:09:57.962Z,4.60
2019-01-30T04:12:28.010Z,4.53
2019-01-30T04:14:57.998Z,4.50
2019-01-30T04:17:27.948Z,4.80
2019-01-30T04:19:57.793Z,4.67
2019-01-30T04:22:27.719Z,4.73
2019-01-30T04:24:57.636Z,4.63
2019-01-30T04:27:27.905Z,4.93
2019-01-30T04:29:57.918Z,5.13
2019-01-30T04:32:27.941Z,5.53
2019-01-30T04:34:57.807Z,5.03
2019-01-30T04:37:27.846Z,4.60
2019-01-30T04:39:57.771Z,5.23
2019-01-30T04:42:27.642Z,5.63
2019-01-30T04:44:57.532Z,4.53
2019-01-30T04:47:27.665Z,4.93
2019-01-30T04:49:57.663Z,4.40
2019-01-30T04:52:27.598Z,4.80
2019-01-30T04:54:57.686Z,4.90
2019-01-30T04:57:27.675Z,4.97
2019-01-30T04:59:58.685Z,5.20
2019-01-30T05:02:28.647Z,5.20
2019-01-30T05:04:58.684Z,5.03
2019-01-30T05:07:28.711Z,4.70
2019-01-30T05:09:58.812Z,4.50
2019-01-30T05:12:28.653Z,4.87
2019-01-30T05:14:58.614Z,4.90
2019-01-30T05:17:28.555Z,5.10
2019-01-30T05:19:58.522Z,5.37
2019-01-30T05:22:28.464Z,5.23
2019-01-30T05:24:58.372Z,5.30
2019-01-30T05:27:28.243Z,5.07
2019-01-30T05:29:58.223Z,4.93
2019-01-30T05:32:28.217Z,5.13
2019-01-30T05:34:58.081Z,5.17
2019-01-30T05:37:27.974Z,4.77
2019-01-30T05:39:57.866Z,5.07
2019-01-30T05:42:27.737Z,5.00
2019-01-30T05:44:57.723Z,5.00
2019-01-30T05:47:27.672Z,5.00
2019-01-30T05:49:58.603Z,4.67
2019-01-30T05:52:28.550Z,4.70
2019-01-30T05:54:58.547Z,5.27
2019-01-30T05:57:28.495Z,4.87
2019-01-30T05:59:58.405Z,5.07
2019-01-30T06:02:28.374Z,5.10
2019-01-30T06:04:58.342Z,5.10
2019-01-30T06:07:28.241Z,5.20
2019-01-30T06:09:58.332Z,4.70
2019-01-30T06:12:28.315Z,5.00
2019-01-30T06:14:58.268Z,5.17
2019-01-30T06:17:28.112Z,5.20
2019-01-30T06:19:58.010Z,4.87
2019-01-30T06:22:27.895Z,5.47
2019-01-30T06:24:57.904Z,4.97
2019-01-30T06:27:27.812Z,5.60
2019-01-30T06:29:57.656Z,5.20
2019-01-30T06:32:27.764Z,4.47
2019-01-30T06:34:57.659Z,4.80
2019-01-30T06:37:27.748Z,5.10
2019-01-30T06:39:57.656Z,5.10
2019-01-30T06:42:27.616Z,4.90
2019-01-30T06:44:57.532Z,4.80
2019-01-30T06:47:27.605Z,5.30
2019-01-30T06:49:57.430Z,4.83
2019-01-30T06:52:27.445Z,4.20
2019-01-30T06:54:57.334Z,4.93
2019-01-30T06:57:27.194Z,4.93
2019-01-30T06:59:57.139Z,4.90
2019-01-30T07:02:32.240Z,5.03
2019-01-30T07:04:58.826Z,4.93
2019-01-30T07:07:28.741Z,4.80
2019-01-30T07:09:58.728Z,5.20
2019-01-30T07:12:28.746Z,5.40
2019-01-30T07:14:58.639Z,5.47
2019-01-30T07:17:28.655Z,5.10
2019-01-30T07:19:58.693Z,5.10
2019-01-30T07:22:28.517Z,4.87
2019-01-30T07:24:58.463Z,5.23
2019-01-30T07:27:28.409Z,5.07
2019-01-30T07:29:58.473Z,4.80
2019-01-30T07:32:28.475Z,4.53
2019-01-30T07:34:58.438Z,4.90
2019-01-30T07:37:28.386Z,4.80
2019-01-30T07:39:58.360Z,4.87
2019-01-30T07:42:28.301Z,5.00
2019-01-30T07:44:58.139Z,4.57
2019-01-30T07:47:28.175Z,4.53
2019-01-30T07:49:58.092Z,4.20
2019-01-30T07:52:28.110Z,4.57
2019-01-30T07:54:58.034Z,4.33
2019-01-30T07:57:28.074Z,4.20
2019-01-30T07:59:57.907Z,4.60
2019-01-30T08:02:27.921Z,4.83
2019-01-30T08:04:57.756Z,4.77
2019-01-30T08:07:27.841Z,4.53
2019-01-30T08:09:57.880Z,4.30
2019-01-30T08:12:27.910Z,4.73
2019-01-30T08:14:57.894Z,4.43
2019-01-30T08:17:27.874Z,4.17
2019-01-30T08:19:57.824Z,4.40
2019-01-30T08:22:27.854Z,4.30
2019-01-30T08:24:57.731Z,3.90
2019-01-30T08:27:27.879Z,4.03
2019-01-30T08:29:57.996Z,4.07
2019-01-30T08:32:28.256Z,4.73
2019-01-30T08:34:58.298Z,4.23
2019-01-30T08:37:28.183Z,4.83
2019-01-30T08:39:58.125Z,4.50
2019-01-30T08:42:27.964Z,4.23
2019-01-30T08:44:57.977Z,4.70
2019-01-30T08:47:27.957Z,4.93
2019-01-30T08:49:58.010Z,4.97
2019-01-30T08:52:27.923Z,4.03
2019-01-30T08:54:57.857Z,4.50
2019-01-30T08:57:27.810Z,4.60
2019-01-30T08:59:57.768Z,4.33
2019-01-30T09:02:28.691Z,4.47
2019-01-30T09:04:58.748Z,4.53
2019-01-30T09:07:28.672Z,4.17
2019-01-30T09:09:58.744Z,4.33
2019-01-30T09:12:28.778Z,4.20
2019-01-30T09:14:58.775Z,4.67
2019-01-30T09:17:28.837Z,4.10
2019-01-30T09:19:58.742Z,4.10
2019-01-30T09:22:28.678Z,4.27
2019-01-30T09:24:58.530Z,4.20
2019-01-30T09:27:28.554Z,4.10
2019-01-30T09:29:58.475Z,4.03
2019-01-30T09:32:28.434Z,4.10
2019-01-30T09:34:58.404Z,3.83
2019-01-30T09:37:28.444Z,4.33
2019-01-30T09:39:58.308Z,3.87
2019-01-30T09:42:28.215Z,4.33
2019-01-30T09:44:58.060Z,4.27
2019-01-30T09:47:28.113Z,4.33
2019-01-30T09:49:58.214Z,5.10
2019-01-30T09:52:28.457Z,4.87
2019-01-30T09:54:58.357Z,4.77
2019-01-30T09:57:28.205Z,4.70
2019-01-30T09:59:58.154Z,5.40
2019-01-30T10:02:28.072Z,5.40
2019-01-30T10:04:58.012Z,4.63
2019-01-30T10:07:27.998Z,4.50
2019-01-30T10:09:57.975Z,6.47
2019-01-30T10:12:27.825Z,4.63
2019-01-30T10:14:58.090Z,5.20
2019-01-30T10:17:31.072Z,5.50
2019-01-30T10:20:00.012Z,4.87
2019-01-30T10:22:29.927Z,5.00
2019-01-30T10:24:59.798Z,4.57
2019-01-30T10:27:29.734Z,5.00
2019-01-30T10:29:59.569Z,5.00
2019-01-30T10:32:29.537Z,4.50
2019-01-30T10:34:59.417Z,4.87
2019-01-30T10:37:29.397Z,4.60
2019-01-30T10:39:59.306Z,4.17
2019-01-30T10:42:29.318Z,4.40
2019-01-30T10:44:59.322Z,9.83
2019-01-30T10:47:29.252Z,5.50
2019-01-30T10:49:59.226Z,5.00
2019-01-30T10:52:29.233Z,5.33
2019-01-30T10:54:59.153Z,5.07
2019-01-30T10:57:29.191Z,5.17
2019-01-30T10:59:59.118Z,5.53
2019-01-30T11:02:29.140Z,4.93
2019-01-30T11:04:59.012Z,6.97
2019-01-30T11:07:28.917Z,6.80
2019-01-30T11:09:58.836Z,5.30
2019-01-30T11:12:28.694Z,5.00
2019-01-30T11:14:58.671Z,5.50
2019-01-30T11:17:28.664Z,5.63
2019-01-30T11:19:58.711Z,4.50
2019-01-30T11:22:28.707Z,4.43
2019-01-30T11:24:58.724Z,4.20
2019-01-30T11:27:28.724Z,4.17
2019-01-30T11:29:58.709Z,3.90
2019-01-30T11:32:28.670Z,4.30
2019-01-30T11:34:58.706Z,4.00
2019-01-30T11:37:28.645Z,3.87
2019-01-30T11:39:58.664Z,4.30
2019-01-30T11:42:28.900Z,3.87
2019-01-30T11:44:58.757Z,4.17
2019-01-30T11:47:28.766Z,3.50
2019-01-30T11:49:58.778Z,3.23
2019-01-30T11:52:28.802Z,3.20
2019-01-30T11:54:58.813Z,4.00
2019-01-30T11:57:28.777Z,3.17
2019-01-30T11:59:58.737Z,3.50
2019-01-30T12:02:28.733Z,2.80
2019-01-30T12:04:58.564Z,2.47
2019-01-30T12:07:28.607Z,3.07
2019-01-30T12:09:58.621Z,2.57
2019-01-30T12:12:28.721Z,3.03
2019-01-30T12:14:58.674Z,2.80
2019-01-30T12:17:28.628Z,2.60
2019-01-30T12:19:58.615Z,2.70
2019-01-30T12:22:28.428Z,2.90
2019-01-30T12:24:58.447Z,2.33
2019-01-30T12:27:28.447Z,2.27
2019-01-30T12:29:58.308Z,2.63
2019-01-30T12:32:29.291Z,2.40
2019-01-30T12:34:59.315Z,2.87
2019-01-30T12:37:29.479Z,3.07
2019-01-30T12:39:59.526Z,2.50
2019-01-30T12:42:29.536Z,2.57
2019-01-30T12:44:59.598Z,2.80
2019-01-30T12:47:31.362Z,2.80
2019-01-30T12:50:01.525Z,2.57
2019-01-30T12:52:31.516Z,2.63
2019-01-30T12:55:01.683Z,2.53
2019-01-30T12:57:31.719Z,3.00
2019-01-30T13:00:01.603Z,2.80
2019-01-30T13:02:31.616Z,2.57
2019-01-30T13:05:01.762Z,2.80
2019-01-30T13:07:31.910Z,2.90
2019-01-30T13:10:01.875Z,2.60
2019-01-30T13:12:31.817Z,2.50
2019-01-30T13:15:01.797Z,2.40
2019-01-30T13:17:31.826Z,2.93
2019-01-30T13:20:01.648Z,2.63
2019-01-30T13:22:31.614Z,2.40
2019-01-30T13:25:02.602Z,2.77
2019-01-30T13:27:32.657Z,2.70
2019-01-30T13:30:05.204Z,2.73
2019-01-30T13:32:35.313Z,2.70
2019-01-30T13:35:06.259Z,2.60
2019-01-30T13:37:37.940Z,2.40
2019-01-30T13:40:12.485Z,2.40
2019-01-30T13:42:42.713Z,2.70
2019-01-30T13:45:14.053Z,2.10
2019-01-30T13:47:44.133Z,1.73
2019-01-30T13:50:16.977Z,1.37
2019-01-30T13:52:46.977Z,1.60
2019-01-30T13:55:17.192Z,1.83
2019-01-30T13:57:47.210Z,1.83
2019-01-30T14:00:20.231Z,1.47
2019-01-30T14:02:50.302Z,1.73
2019-01-30T14:05:21.337Z,1.30
2019-01-30T14:07:52.086Z,1.50
2019-01-30T14:10:22.641Z,1.30
2019-01-30T14:12:52.657Z,1.20
2019-01-30T14:15:24.568Z,1.20
2019-01-30T14:17:54.655Z,1.20
2019-01-30T14:20:24.823Z,1.57
2019-01-30T14:22:54.774Z,1.20
2019-01-30T14:25:25.022Z,1.20
2019-01-30T14:27:54.990Z,0.90
2019-01-30T14:30:30.368Z,1.27
2019-01-30T14:33:00.539Z,1.20
2019-01-30T14:35:32.932Z,1.10
2019-01-30T14:38:02.838Z,0.90
2019-01-30T14:40:32.828Z,1.00
2019-01-30T14:43:02.850Z,1.07
2019-01-30T14:45:32.766Z,1.00
2019-01-30T14:48:02.922Z,0.70
2019-01-30T14:50:33.113Z,0.80
2019-01-30T14:53:03.034Z,0.90
2019-01-30T14:55:33.166Z,1.20
2019-01-30T14:58:03.298Z,0.80
2019-01-30T15:00:33.969Z,1.10
2019-01-30T15:03:03.911Z,1.10
2019-01-30T15:05:33.924Z,1.00
2019-01-30T15:08:04.160Z,1.03
2019-01-30T15:10:33.988Z,1.20
2019-01-30T15:13:04.542Z,1.20
2019-01-30T15:15:34.480Z,1.10
2019-01-30T15:18:04.926Z,1.07
2019-01-30T15:20:35.813Z,1.10
2019-01-30T15:23:07.270Z,1.30
2019-01-30T15:25:37.252Z,0.90
2019-01-30T15:28:07.730Z,0.93
2019-01-30T15:30:43.427Z,1.00
2019-01-30T15:33:13.514Z,0.90
2019-01-30T15:35:43.646Z,0.90
2019-01-30T15:38:15.482Z,0.90
2019-01-30T15:40:45.788Z,0.90
2019-01-30T15:43:15.876Z,0.80
2019-01-30T15:45:45.845Z,0.93
2019-01-30T15:48:16.221Z,0.90
2019-01-30T15:50:49.660Z,1.20
2019-01-30T15:53:26.966Z,1.10
2019-01-30T15:55:58.928Z,1.00
2019-01-30T15:58:29.508Z,0.80
2019-01-30T16:01:16.401Z,0.87
2019-01-30T16:03:46.425Z,1.03
2019-01-30T16:06:16.402Z,0.93
2019-01-30T16:08:46.392Z,1.30
2019-01-30T16:11:16.468Z,0.90
2019-01-30T16:13:48.116Z,1.10
2019-01-30T16:16:18.282Z,1.00
2019-01-30T16:18:48.202Z,1.77
2019-01-30T16:21:19.474Z,1.10
2019-01-30T16:23:49.458Z,1.57
2019-01-30T16:26:21.236Z,1.40
2019-01-30T16:28:51.111Z,1.33
2019-01-30T16:31:21.170Z,1.53
2019-01-30T16:33:52.075Z,1.00
2019-01-30T16:36:22.020Z,1.80
2019-01-30T16:38:52.118Z,1.33
2019-01-30T16:41:22.142Z,1.20
2019-01-30T16:43:52.081Z,1.43
2019-01-30T16:46:22.089Z,1.57
2019-01-30T16:48:52.006Z,1.73
2019-01-30T16:51:22.040Z,1.60
2019-01-30T16:53:52.016Z,1.30
2019-01-30T16:56:22.103Z,1.40
2019-01-30T16:58:52.139Z,1.10
2019-01-30T17:01:22.202Z,1.37
2019-01-30T17:03:52.160Z,1.43
2019-01-30T17:06:22.182Z,1.30
2019-01-30T17:08:52.178Z,1.40
2019-01-30T17:11:22.249Z,1.20
2019-01-30T17:13:52.151Z,1.33
2019-01-30T17:16:22.166Z,1.53
2019-01-30T17:18:52.132Z,1.50
2019-01-30T17:21:22.128Z,1.30
2019-01-30T17:23:52.117Z,1.53
2019-01-30T17:26:22.181Z,1.50
2019-01-30T17:28:52.059Z,1.33
2019-01-30T17:31:28.375Z,1.40
2019-01-30T17:33:58.350Z,1.87
2019-01-30T17:36:28.365Z,1.13
2019-01-30T17:38:58.370Z,1.50
2019-01-30T17:41:28.312Z,1.80
2019-01-30T17:43:58.320Z,1.90
2019-01-30T17:46:28.349Z,1.50
2019-01-30T17:48:58.194Z,1.27
2019-01-30T17:51:28.218Z,1.83
2019-01-30T17:53:58.112Z,1.80
2019-01-30T17:56:28.146Z,1.63
2019-01-30T17:58:58.263Z,1.40
2019-01-30T18:01:28.312Z,2.07
2019-01-30T18:03:58.292Z,2.00
2019-01-30T18:06:29.981Z,1.83
2019-01-30T18:09:00.213Z,1.93
2019-01-30T18:11:30.295Z,1.40
2019-01-30T18:14:00.243Z,1.90
2019-01-30T18:16:30.340Z,1.43
2019-01-30T18:19:00.218Z,1.80
2019-01-30T18:21:32.098Z,1.70
2019-01-30T18:24:01.835Z,1.67
2019-01-30T18:26:31.931Z,1.97
2019-01-30T18:29:02.038Z,1.77
2019-01-30T18:31:33.658Z,1.80
2019-01-30T18:34:03.579Z,1.80
2019-01-30T18:36:40.690Z,1.57
2019-01-30T18:39:08.576Z,1.60
2019-01-30T18:41:38.553Z,1.30
2019-01-30T18:44:08.430Z,1.60
2019-01-30T18:46:38.640Z,1.73
2019-01-30T18:49:08.562Z,1.70
2019-01-30T18:51:38.486Z,1.60
2019-01-30T18:54:27.446Z,1.90
2019-01-30T18:56:57.374Z,1.83
2019-01-30T18:59:27.519Z,2.07
2019-01-30T19:01:57.378Z,1.60
2019-01-30T19:04:27.401Z,2.10
2019-01-30T19:06:57.518Z,2.20
2019-01-30T19:09:27.508Z,1.90
2019-01-30T19:11:57.452Z,2.33
2019-01-30T19:14:27.441Z,1.90
2019-01-30T19:16:57.495Z,2.03
2019-01-30T19:19:27.505Z,2.10
2019-01-30T19:21:57.481Z,2.07
2019-01-30T19:24:27.416Z,1.97
2019-01-30T19:26:57.428Z,2.10
2019-01-30T19:29:27.349Z,2.10
2019-01-30T19:31:57.277Z,2.10
2019-01-30T19:34:27.196Z,2.30
2019-01-30T19:39:33.180Z,2.67
2019-01-30T19:42:03.162Z,2.40
2019-01-30T19:44:33.708Z,2.60
2019-01-30T19:47:03.775Z,2.50
2019-01-30T19:49:33.688Z,2.50
2019-01-30T19:52:03.966Z,2.47
2019-01-30T19:54:33.882Z,2.40
2019-01-30T19:57:03.918Z,2.53
2019-01-30T19:59:33.894Z,2.43
2019-01-30T20:02:04.106Z,2.43
2019-01-30T20:04:53.060Z,2.40
2019-01-30T20:07:23.038Z,2.57
2019-01-30T20:09:54.047Z,2.57
2019-01-30T20:12:24.219Z,2.53
2019-01-30T20:14:54.347Z,2.20
2019-01-30T20:17:24.538Z,2.40
2019-01-30T20:19:54.496Z,2.47
2019-01-30T20:22:24.430Z,2.23
2019-01-30T20:24:54.500Z,2.30
2019-01-30T20:27:24.562Z,2.50
2019-01-30T20:29:54.724Z,2.30
2019-01-30T20:32:24.546Z,2.70
2019-01-30T20:34:55.747Z,3.10
2019-01-30T20:37:26.530Z,2.63
2019-01-30T20:39:56.811Z,2.50
2019-01-30T20:42:27.082Z,2.73
2019-01-30T20:44:57.166Z,3.00
2019-01-30T20:47:27.124Z,2.77
2019-01-30T20:49:56.975Z,2.67
2019-01-30T20:52:27.120Z,3.20
2019-01-30T20:54:59.899Z,2.67
2019-01-30T20:57:28.840Z,2.47
2019-01-30T20:59:58.896Z,2.40
2019-01-30T21:02:29.036Z,2.20
2019-01-30T21:04:59.060Z,2.40
2019-01-30T21:07:37.020Z,2.10
2019-01-30T21:10:00.804Z,2.10
2019-01-30T21:12:30.759Z,2.37
2019-01-30T21:15:01.850Z,2.47
2019-01-30T21:17:31.921Z,3.30
2019-01-30T21:20:01.768Z,2.30
2019-01-30T21:22:32.732Z,2.30
2019-01-30T21:25:02.610Z,2.40
2019-01-30T21:27:33.544Z,2.37
2019-01-30T21:30:03.564Z,2.40
2019-01-30T21:32:33.521Z,2.17
2019-01-30T21:35:03.528Z,2.27
2019-01-30T21:37:33.468Z,2.40
2019-01-30T21:40:03.732Z,2.23
2019-01-30T21:42:33.576Z,2.30
2019-01-30T21:45:03.591Z,2.07
2019-01-30T21:47:33.519Z,2.27
2019-01-30T21:50:03.498Z,2.30
2019-01-30T21:52:33.348Z,2.07
2019-01-30T21:55:04.073Z,2.60
2019-01-30T21:57:53.201Z,2.63
2019-01-30T22:00:25.030Z,2.20
2019-01-30T22:02:56.151Z,2.17
2019-01-30T22:05:26.451Z,2.27
2019-01-30T22:08:01.103Z,2.33
2019-01-30T22:10:29.532Z,2.23
2019-01-30T22:12:59.546Z,1.80
2019-01-30T22:15:29.623Z,2.10
2019-01-30T22:17:59.654Z,2.13
2019-01-30T22:20:29.756Z,2.03
2019-01-30T22:23:00.045Z,2.10
2019-01-30T22:25:29.953Z,2.10
2019-01-30T22:27:59.953Z,2.13
2019-01-30T22:30:32.278Z,2.23
2019-01-30T22:33:02.331Z,2.20
2019-01-30T22:35:32.257Z,1.80
2019-01-30T22:38:12.173Z,2.60
2019-01-30T22:40:33.906Z,2.20
2019-01-30T22:43:03.954Z,2.70
2019-01-30T22:45:33.982Z,2.20
2019-01-30T22:48:03.931Z,2.30
2019-01-30T22:50:33.915Z,2.80
2019-01-30T22:53:03.899Z,2.57
2019-01-30T22:55:33.940Z,2.70
2019-01-30T22:58:04.194Z,2.63
2019-01-30T23:01:13.297Z,3.03
2019-01-30T23:03:47.999Z,2.40
2019-01-30T23:06:45.012Z,3.17
2019-01-30T23:10:04.415Z,2.93
2019-01-30T23:12:55.782Z,2.80
2019-01-30T23:16:02.985Z,2.40
2019-01-30T23:18:44.371Z,3.00
2019-01-30T23:21:22.241Z,2.50
2019-01-30T23:24:33.077Z,3.30
2019-01-30T23:27:09.989Z,3.27
2019-01-30T23:30:19.233Z,2.53
2019-01-30T23:33:27.191Z,2.40
2019-01-30T23:36:27.492Z,2.73
2019-01-30T23:39:11.108Z,2.80
2019-01-30T23:42:06.262Z,2.60
2019-01-30T23:45:32.539Z,2.30
2019-01-30T23:48:20.739Z,2.40
2019-01-30T23:51:49.907Z,2.60
2019-01-30T23:54:45.785Z,2.43
2019-01-30T23:57:57.065Z,2.23
